Preview of NWS' New Version of Forecast
This preview is not operational and should not be used for support decisions.

Terminal Aerodrome Forecast (TAF)

Issued by National Weather Service (NWS)

                            
000
FTUS42 KMFL 262333
TAFMIA
TAF
KMIA 262333Z 2700/2806 10012KT P6SM SHRA SCT020 BKN050 OVC100
      TEMPO 2700/2702 6SM RA BKN015
     FM270300 11014KT P6SM SHRA SCT020 BKN035 OVC080
     FM271000 14016G26KT P6SM SHRA SCT015 BKN035
     FM271500 17020G30KT P6SM VCTS BKN015CB OVC030
     FM280000 13015G25KT P6SM VCSH BKN025 OVC040=